sensor_id;sensor_type;location;lat;lon;timestamp;P1;durP1;ratioP1;P2;durP2;ratioP2
37877;SDS011;23715;53.652;8.516;2023-06-22T00:02:19;30.50;;;27.62;;
37877;SDS011;23715;53.652;8.516;2023-06-22T00:07:21;27.82;;;24.85;;
37877;SDS011;23715;53.652;8.516;2023-06-22T00:12:23;28.60;;;25.80;;
37877;SDS011;23715;53.652;8.516;2023-06-22T00:17:31;29.02;;;26.15;;
37877;SDS011;23715;53.652;8.516;2023-06-22T00:22:34;27.90;;;25.05;;
37877;SDS011;23715;53.652;8.516;2023-06-22T00:27:51;28.70;;;25.90;;
37877;SDS011;23715;53.652;8.516;2023-06-22T00:32:40;30.27;;;27.17;;
37877;SDS011;23715;53.652;8.516;2023-06-22T00:37:42;28.90;;;26.10;;
37877;SDS011;23715;53.652;8.516;2023-06-22T00:42:45;34.13;;;30.70;;
37877;SDS011;23715;53.652;8.516;2023-06-22T00:47:47;28.83;;;25.83;;
37877;SDS011;23715;53.652;8.516;2023-06-22T00:52:52;31.23;;;28.10;;
37877;SDS011;23715;53.652;8.516;2023-06-22T00:57:56;31.20;;;28.10;;
37877;SDS011;23715;53.652;8.516;2023-06-22T01:03:00;31.30;;;28.13;;
37877;SDS011;23715;53.652;8.516;2023-06-22T01:08:07;30.82;;;27.73;;
37877;SDS011;23715;53.652;8.516;2023-06-22T01:13:29;31.80;;;28.73;;
37877;SDS011;23715;53.652;8.516;2023-06-22T01:19:01;32.80;;;29.50;;
37877;SDS011;23715;53.652;8.516;2023-06-22T01:24:24;30.75;;;27.60;;
37877;SDS011;23715;53.652;8.516;2023-06-22T01:29:33;32.78;;;29.40;;
37877;SDS011;23715;53.652;8.516;2023-06-22T01:34:34;31.33;;;28.12;;
37877;SDS011;23715;53.652;8.516;2023-06-22T01:39:38;33.00;;;29.80;;
37877;SDS011;23715;53.652;8.516;2023-06-22T01:44:41;32.42;;;29.10;;
37877;SDS011;23715;53.652;8.516;2023-06-22T01:49:46;31.30;;;28.15;;
37877;SDS011;23715;53.652;8.516;2023-06-22T01:55:01;30.15;;;27.13;;
37877;SDS011;23715;53.652;8.516;2023-06-22T02:00:03;29.92;;;25.62;;
37877;SDS011;23715;53.652;8.516;2023-06-22T02:05:17;29.40;;;26.00;;
37877;SDS011;23715;53.652;8.516;2023-06-22T02:10:22;27.45;;;24.45;;
37877;SDS011;23715;53.652;8.516;2023-06-22T02:15:26;26.15;;;23.02;;
37877;SDS011;23715;53.652;8.516;2023-06-22T02:20:43;29.87;;;26.68;;
37877;SDS011;23715;53.652;8.516;2023-06-22T02:25:34;34.58;;;28.75;;
37877;SDS011;23715;53.652;8.516;2023-06-22T02:30:39;28.80;;;25.70;;
37877;SDS011;23715;53.652;8.516;2023-06-22T02:35:41;29.18;;;26.05;;
37877;SDS011;23715;53.652;8.516;2023-06-22T02:40:43;28.80;;;24.00;;
37877;SDS011;23715;53.652;8.516;2023-06-22T02:45:48;26.50;;;23.45;;
37877;SDS011;23715;53.652;8.516;2023-06-22T02:50:50;29.57;;;23.80;;
37877;SDS011;23715;53.652;8.516;2023-06-22T02:55:55;24.92;;;22.30;;
37877;SDS011;23715;53.652;8.516;2023-06-22T03:00:59;30.20;;;24.43;;
37877;SDS011;23715;53.652;8.516;2023-06-22T03:06:01;29.80;;;25.95;;
37877;SDS011;23715;53.652;8.516;2023-06-22T03:11:18;28.00;;;25.10;;
37877;SDS011;23715;53.652;8.516;2023-06-22T03:16:13;28.27;;;25.43;;
37877;SDS011;23715;53.652;8.516;2023-06-22T03:21:16;32.28;;;25.02;;
37877;SDS011;23715;53.652;8.516;2023-06-22T03:26:21;24.57;;;22.05;;
37877;SDS011;23715;53.652;8.516;2023-06-22T03:31:23;25.35;;;22.95;;
37877;SDS011;23715;53.652;8.516;2023-06-22T03:36:25;26.42;;;22.73;;
37877;SDS011;23715;53.652;8.516;2023-06-22T03:41:27;27.13;;;24.23;;
37877;SDS011;23715;53.652;8.516;2023-06-22T03:46:29;28.65;;;25.75;;
37877;SDS011;23715;53.652;8.516;2023-06-22T03:51:35;29.57;;;26.68;;
37877;SDS011;23715;53.652;8.516;2023-06-22T03:56:35;29.20;;;26.20;;
37877;SDS011;23715;53.652;8.516;2023-06-22T04:01:39;29.55;;;26.55;;
37877;SDS011;23715;53.652;8.516;2023-06-22T04:06:41;31.05;;;27.85;;
37877;SDS011;23715;53.652;8.516;2023-06-22T04:11:43;32.47;;;29.40;;
37877;SDS011;23715;53.652;8.516;2023-06-22T04:16:45;33.65;;;30.27;;
37877;SDS011;23715;53.652;8.516;2023-06-22T04:21:49;34.05;;;30.65;;
37877;SDS011;23715;53.652;8.516;2023-06-22T04:26:53;36.80;;;33.20;;
37877;SDS011;23715;53.652;8.516;2023-06-22T04:37:43;41.60;;;37.78;;
37877;SDS011;23715;53.652;8.516;2023-06-22T04:42:49;45.12;;;41.10;;
37877;SDS011;23715;53.652;8.516;2023-06-22T04:47:52;45.05;;;41.05;;
37877;SDS011;23715;53.652;8.516;2023-06-22T04:52:59;46.08;;;41.98;;
37877;SDS011;23715;53.652;8.516;2023-06-22T04:57:59;44.00;;;40.33;;
37877;SDS011;23715;53.652;8.516;2023-06-22T05:03:04;45.28;;;41.23;;
37877;SDS011;23715;53.652;8.516;2023-06-22T05:08:11;45.95;;;42.15;;
37877;SDS011;23715;53.652;8.516;2023-06-22T05:13:06;50.12;;;46.02;;
37877;SDS011;23715;53.652;8.516;2023-06-22T05:18:08;49.63;;;45.63;;
37877;SDS011;23715;53.652;8.516;2023-06-22T05:23:14;52.30;;;48.17;;
37877;SDS011;23715;53.652;8.516;2023-06-22T05:28:21;55.45;;;51.20;;
37877;SDS011;23715;53.652;8.516;2023-06-22T05:33:22;58.95;;;54.05;;
37877;SDS011;23715;53.652;8.516;2023-06-22T05:38:32;64.97;;;60.10;;
37877;SDS011;23715;53.652;8.516;2023-06-22T05:43:34;64.10;;;59.35;;
37877;SDS011;23715;53.652;8.516;2023-06-22T05:48:34;62.67;;;57.65;;
37877;SDS011;23715;53.652;8.516;2023-06-22T05:53:35;61.80;;;57.15;;
37877;SDS011;23715;53.652;8.516;2023-06-22T05:58:39;63.20;;;58.50;;
37877;SDS011;23715;53.652;8.516;2023-06-22T06:03:41;61.33;;;56.63;;
37877;SDS011;23715;53.652;8.516;2023-06-22T06:08:43;66.37;;;61.18;;
37877;SDS011;23715;53.652;8.516;2023-06-22T06:13:45;70.17;;;64.65;;
37877;SDS011;23715;53.652;8.516;2023-06-22T06:24:12;57.85;;;53.75;;
37877;SDS011;23715;53.652;8.516;2023-06-22T06:29:13;59.95;;;55.55;;
37877;SDS011;23715;53.652;8.516;2023-06-22T06:34:14;57.25;;;53.17;;
37877;SDS011;23715;53.652;8.516;2023-06-22T06:39:15;51.23;;;47.25;;
37877;SDS011;23715;53.652;8.516;2023-06-22T06:44:18;44.67;;;41.68;;
37877;SDS011;23715;53.652;8.516;2023-06-22T06:49:19;42.62;;;39.67;;
37877;SDS011;23715;53.652;8.516;2023-06-22T06:59:22;37.45;;;34.73;;
37877;SDS011;23715;53.652;8.516;2023-06-22T07:04:27;34.58;;;31.97;;
37877;SDS011;23715;53.652;8.516;2023-06-22T07:09:27;36.35;;;33.65;;
37877;SDS011;23715;53.652;8.516;2023-06-22T07:19:29;37.63;;;34.65;;
37877;SDS011;23715;53.652;8.516;2023-06-22T07:24:31;38.48;;;35.50;;
37877;SDS011;23715;53.652;8.516;2023-06-22T07:29:39;40.67;;;37.75;;
37877;SDS011;23715;53.652;8.516;2023-06-22T07:34:38;36.73;;;33.83;;
37877;SDS011;23715;53.652;8.516;2023-06-22T07:39:38;39.58;;;36.33;;
37877;SDS011;23715;53.652;8.516;2023-06-22T07:49:38;39.67;;;35.50;;
37877;SDS011;23715;53.652;8.516;2023-06-22T07:54:38;43.28;;;40.35;;
37877;SDS011;23715;53.652;8.516;2023-06-22T07:59:45;40.23;;;37.43;;
37877;SDS011;23715;53.652;8.516;2023-06-22T08:09:48;36.25;;;33.55;;
37877;SDS011;23715;53.652;8.516;2023-06-22T08:14:48;32.40;;;29.90;;
37877;SDS011;23715;53.652;8.516;2023-06-22T08:24:48;30.67;;;28.37;;
37877;SDS011;23715;53.652;8.516;2023-06-22T08:34:49;30.43;;;28.03;;
37877;SDS011;23715;53.652;8.516;2023-06-22T08:39:49;31.05;;;28.87;;
37877;SDS011;23715;53.652;8.516;2023-06-22T08:49:49;31.40;;;29.18;;
37877;SDS011;23715;53.652;8.516;2023-06-22T08:54:49;29.45;;;27.25;;
37877;SDS011;23715;53.652;8.516;2023-06-22T08:59:49;28.32;;;26.02;;
37877;SDS011;23715;53.652;8.516;2023-06-22T09:04:51;25.85;;;23.95;;
37877;SDS011;23715;53.652;8.516;2023-06-22T09:09:55;24.63;;;22.67;;
37877;SDS011;23715;53.652;8.516;2023-06-22T09:14:55;22.37;;;20.82;;
37877;SDS011;23715;53.652;8.516;2023-06-22T09:19:55;21.70;;;20.17;;
37877;SDS011;23715;53.652;8.516;2023-06-22T09:24:56;18.80;;;17.33;;
37877;SDS011;23715;53.652;8.516;2023-06-22T09:29:56;19.50;;;18.00;;
37877;SDS011;23715;53.652;8.516;2023-06-22T09:34:56;18.10;;;16.87;;
37877;SDS011;23715;53.652;8.516;2023-06-22T09:39:57;18.00;;;16.65;;
37877;SDS011;23715;53.652;8.516;2023-06-22T09:44:57;18.55;;;17.15;;
37877;SDS011;23715;53.652;8.516;2023-06-22T09:50:00;17.20;;;16.10;;
37877;SDS011;23715;53.652;8.516;2023-06-22T09:55:00;18.25;;;16.75;;
37877;SDS011;23715;53.652;8.516;2023-06-22T10:00:05;18.13;;;16.70;;
37877;SDS011;23715;53.652;8.516;2023-06-22T10:05:07;20.80;;;18.73;;
37877;SDS011;23715;53.652;8.516;2023-06-22T10:10:08;18.20;;;16.97;;
37877;SDS011;23715;53.652;8.516;2023-06-22T10:15:12;17.12;;;15.75;;
37877;SDS011;23715;53.652;8.516;2023-06-22T10:20:15;17.87;;;16.48;;
37877;SDS011;23715;53.652;8.516;2023-06-22T10:25:16;16.05;;;14.80;;
37877;SDS011;23715;53.652;8.516;2023-06-22T10:30:17;18.13;;;16.83;;
37877;SDS011;23715;53.652;8.516;2023-06-22T10:35:17;17.27;;;16.07;;
37877;SDS011;23715;53.652;8.516;2023-06-22T10:40:17;16.45;;;15.15;;
37877;SDS011;23715;53.652;8.516;2023-06-22T10:45:18;17.90;;;16.60;;
37877;SDS011;23715;53.652;8.516;2023-06-22T10:50:18;17.30;;;15.88;;
37877;SDS011;23715;53.652;8.516;2023-06-22T10:55:18;16.12;;;15.00;;
37877;SDS011;23715;53.652;8.516;2023-06-22T11:00:19;16.90;;;15.40;;
37877;SDS011;23715;53.652;8.516;2023-06-22T11:05:20;15.88;;;14.70;;
37877;SDS011;23715;53.652;8.516;2023-06-22T11:10:20;15.90;;;14.87;;
37877;SDS011;23715;53.652;8.516;2023-06-22T11:15:21;16.15;;;14.93;;
37877;SDS011;23715;53.652;8.516;2023-06-22T11:20:21;15.05;;;13.85;;
37877;SDS011;23715;53.652;8.516;2023-06-22T11:25:24;16.55;;;15.28;;
37877;SDS011;23715;53.652;8.516;2023-06-22T11:30:24;15.68;;;14.58;;
37877;SDS011;23715;53.652;8.516;2023-06-22T11:35:25;15.55;;;14.25;;
37877;SDS011;23715;53.652;8.516;2023-06-22T11:40:26;17.97;;;16.47;;
37877;SDS011;23715;53.652;8.516;2023-06-22T11:45:29;16.87;;;15.53;;
37877;SDS011;23715;53.652;8.516;2023-06-22T11:50:29;16.00;;;14.93;;
37877;SDS011;23715;53.652;8.516;2023-06-22T11:55:31;16.32;;;15.20;;
37877;SDS011;23715;53.652;8.516;2023-06-22T12:00:31;16.42;;;15.13;;
37877;SDS011;23715;53.652;8.516;2023-06-22T12:05:32;16.37;;;15.08;;
37877;SDS011;23715;53.652;8.516;2023-06-22T12:10:32;14.87;;;13.65;;
37877;SDS011;23715;53.652;8.516;2023-06-22T12:15:32;17.07;;;15.63;;
37877;SDS011;23715;53.652;8.516;2023-06-22T12:20:33;16.27;;;14.70;;
37877;SDS011;23715;53.652;8.516;2023-06-22T12:25:33;15.68;;;14.55;;
37877;SDS011;23715;53.652;8.516;2023-06-22T12:30:33;15.08;;;13.88;;
37877;SDS011;23715;53.652;8.516;2023-06-22T12:35:34;14.28;;;13.28;;
37877;SDS011;23715;53.652;8.516;2023-06-22T12:45:39;15.80;;;14.60;;
37877;SDS011;23715;53.652;8.516;2023-06-22T12:50:45;15.55;;;14.13;;
37877;SDS011;23715;53.652;8.516;2023-06-22T12:55:50;15.40;;;14.33;;
37877;SDS011;23715;53.652;8.516;2023-06-22T13:00:56;16.12;;;14.87;;
37877;SDS011;23715;53.652;8.516;2023-06-22T13:05:57;15.50;;;14.30;;
37877;SDS011;23715;53.652;8.516;2023-06-22T13:11:00;15.35;;;14.20;;
37877;SDS011;23715;53.652;8.516;2023-06-22T13:16:06;15.40;;;14.13;;
37877;SDS011;23715;53.652;8.516;2023-06-22T13:21:11;15.38;;;14.05;;
37877;SDS011;23715;53.652;8.516;2023-06-22T13:26:12;13.45;;;12.40;;
37877;SDS011;23715;53.652;8.516;2023-06-22T13:31:14;14.98;;;13.78;;
37877;SDS011;23715;53.652;8.516;2023-06-22T13:36:16;14.13;;;12.97;;
37877;SDS011;23715;53.652;8.516;2023-06-22T13:41:16;14.63;;;13.15;;
37877;SDS011;23715;53.652;8.516;2023-06-22T13:46:16;12.90;;;11.90;;
37877;SDS011;23715;53.652;8.516;2023-06-22T13:51:19;13.65;;;12.65;;
37877;SDS011;23715;53.652;8.516;2023-06-22T13:56:23;12.80;;;11.60;;
37877;SDS011;23715;53.652;8.516;2023-06-22T14:01:35;14.00;;;12.98;;
37877;SDS011;23715;53.652;8.516;2023-06-22T14:06:33;13.72;;;12.47;;
37877;SDS011;23715;53.652;8.516;2023-06-22T14:11:37;13.98;;;12.88;;
37877;SDS011;23715;53.652;8.516;2023-06-22T14:16:44;12.70;;;11.80;;
37877;SDS011;23715;53.652;8.516;2023-06-22T14:21:47;12.35;;;11.53;;
37877;SDS011;23715;53.652;8.516;2023-06-22T14:26:51;12.90;;;12.00;;
37877;SDS011;23715;53.652;8.516;2023-06-22T14:31:54;12.35;;;11.53;;
37877;SDS011;23715;53.652;8.516;2023-06-22T14:36:59;13.08;;;11.85;;
37877;SDS011;23715;53.652;8.516;2023-06-22T14:42:05;12.58;;;11.70;;
37877;SDS011;23715;53.652;8.516;2023-06-22T14:47:09;12.55;;;11.55;;
37877;SDS011;23715;53.652;8.516;2023-06-22T14:52:21;11.30;;;10.43;;
37877;SDS011;23715;53.652;8.516;2023-06-22T14:57:26;12.28;;;11.08;;
37877;SDS011;23715;53.652;8.516;2023-06-22T15:02:26;11.43;;;10.53;;
37877;SDS011;23715;53.652;8.516;2023-06-22T15:07:26;12.20;;;11.10;;
37877;SDS011;23715;53.652;8.516;2023-06-22T15:12:31;11.87;;;11.07;;
37877;SDS011;23715;53.652;8.516;2023-06-22T15:17:33;13.28;;;11.68;;
37877;SDS011;23715;53.652;8.516;2023-06-22T15:22:33;10.82;;;10.00;;
37877;SDS011;23715;53.652;8.516;2023-06-22T15:27:34;10.88;;;10.18;;
37877;SDS011;23715;53.652;8.516;2023-06-22T15:32:42;9.75;;;9.13;;
37877;SDS011;23715;53.652;8.516;2023-06-22T15:37:46;10.88;;;9.98;;
37877;SDS011;23715;53.652;8.516;2023-06-22T15:42:53;11.05;;;10.08;;
37877;SDS011;23715;53.652;8.516;2023-06-22T15:47:53;10.18;;;9.50;;
37877;SDS011;23715;53.652;8.516;2023-06-22T15:52:53;10.85;;;9.98;;
37877;SDS011;23715;53.652;8.516;2023-06-22T15:57:56;10.58;;;9.65;;
37877;SDS011;23715;53.652;8.516;2023-06-22T16:02:59;9.93;;;9.30;;
37877;SDS011;23715;53.652;8.516;2023-06-22T16:07:59;10.47;;;9.80;;
37877;SDS011;23715;53.652;8.516;2023-06-22T16:12:59;10.80;;;9.80;;
37877;SDS011;23715;53.652;8.516;2023-06-22T16:18:00;11.33;;;10.20;;
37877;SDS011;23715;53.652;8.516;2023-06-22T16:23:03;11.33;;;10.00;;
37877;SDS011;23715;53.652;8.516;2023-06-22T16:33:03;10.77;;;9.87;;
37877;SDS011;23715;53.652;8.516;2023-06-22T16:38:05;11.57;;;10.72;;
37877;SDS011;23715;53.652;8.516;2023-06-22T16:43:07;10.60;;;9.90;;
37877;SDS011;23715;53.652;8.516;2023-06-22T16:48:09;11.10;;;10.25;;
37877;SDS011;23715;53.652;8.516;2023-06-22T16:53:12;14.23;;;10.55;;
37877;SDS011;23715;53.652;8.516;2023-06-22T16:58:24;10.50;;;9.50;;
37877;SDS011;23715;53.652;8.516;2023-06-22T17:03:26;15.15;;;10.48;;
37877;SDS011;23715;53.652;8.516;2023-06-22T17:08:31;13.53;;;9.53;;
37877;SDS011;23715;53.652;8.516;2023-06-22T17:13:37;10.97;;;9.27;;
37877;SDS011;23715;53.652;8.516;2023-06-22T17:18:47;11.15;;;9.95;;
37877;SDS011;23715;53.652;8.516;2023-06-22T17:23:49;11.05;;;10.13;;
37877;SDS011;23715;53.652;8.516;2023-06-22T17:28:53;11.50;;;10.70;;
37877;SDS011;23715;53.652;8.516;2023-06-22T17:33:55;12.78;;;11.65;;
37877;SDS011;23715;53.652;8.516;2023-06-22T17:39:07;170.43;;;32.80;;
37877;SDS011;23715;53.652;8.516;2023-06-22T17:44:04;11.68;;;10.65;;
37877;SDS011;23715;53.652;8.516;2023-06-22T17:49:09;18.82;;;10.88;;
37877;SDS011;23715;53.652;8.516;2023-06-22T17:54:17;13.08;;;11.20;;
37877;SDS011;23715;53.652;8.516;2023-06-22T17:59:19;13.00;;;11.75;;
37877;SDS011;23715;53.652;8.516;2023-06-22T18:04:22;12.90;;;11.70;;
37877;SDS011;23715;53.652;8.516;2023-06-22T18:09:24;12.20;;;11.05;;
37877;SDS011;23715;53.652;8.516;2023-06-22T18:14:27;11.80;;;10.70;;
37877;SDS011;23715;53.652;8.516;2023-06-22T18:19:28;13.75;;;10.80;;
37877;SDS011;23715;53.652;8.516;2023-06-22T18:24:39;13.08;;;9.18;;
37877;SDS011;23715;53.652;8.516;2023-06-22T18:29:42;15.00;;;10.10;;
37877;SDS011;23715;53.652;8.516;2023-06-22T18:34:39;10.75;;;9.85;;
37877;SDS011;23715;53.652;8.516;2023-06-22T18:39:45;10.28;;;9.48;;
37877;SDS011;23715;53.652;8.516;2023-06-22T18:44:52;10.32;;;9.45;;
37877;SDS011;23715;53.652;8.516;2023-06-22T18:49:52;10.25;;;9.35;;
37877;SDS011;23715;53.652;8.516;2023-06-22T18:54:55;10.63;;;9.07;;
37877;SDS011;23715;53.652;8.516;2023-06-22T19:10:25;11.15;;;9.90;;
37877;SDS011;23715;53.652;8.516;2023-06-22T19:15:41;9.98;;;9.20;;
37877;SDS011;23715;53.652;8.516;2023-06-22T19:20:43;10.20;;;9.50;;
37877;SDS011;23715;53.652;8.516;2023-06-22T19:26:18;10.65;;;9.75;;
37877;SDS011;23715;53.652;8.516;2023-06-22T19:31:05;10.00;;;9.20;;
37877;SDS011;23715;53.652;8.516;2023-06-22T19:36:19;9.75;;;9.03;;
37877;SDS011;23715;53.652;8.516;2023-06-22T19:41:07;9.40;;;8.58;;
37877;SDS011;23715;53.652;8.516;2023-06-22T19:46:08;10.30;;;9.30;;
37877;SDS011;23715;53.652;8.516;2023-06-22T19:51:10;11.22;;;10.43;;
37877;SDS011;23715;53.652;8.516;2023-06-22T19:56:11;13.50;;;12.47;;
37877;SDS011;23715;53.652;8.516;2023-06-22T20:01:11;14.83;;;13.68;;
37877;SDS011;23715;53.652;8.516;2023-06-22T20:06:12;17.90;;;16.60;;
37877;SDS011;23715;53.652;8.516;2023-06-22T20:11:28;19.12;;;17.32;;
37877;SDS011;23715;53.652;8.516;2023-06-22T20:16:36;17.32;;;15.55;;
37877;SDS011;23715;53.652;8.516;2023-06-22T20:21:30;14.95;;;13.85;;
37877;SDS011;23715;53.652;8.516;2023-06-22T20:31:40;18.17;;;16.80;;
37877;SDS011;23715;53.652;8.516;2023-06-22T20:36:41;20.70;;;18.87;;
37877;SDS011;23715;53.652;8.516;2023-06-22T20:41:42;19.60;;;18.05;;
37877;SDS011;23715;53.652;8.516;2023-06-22T20:46:44;22.07;;;20.57;;
37877;SDS011;23715;53.652;8.516;2023-06-22T20:51:45;25.10;;;23.15;;
37877;SDS011;23715;53.652;8.516;2023-06-22T20:56:45;25.48;;;23.85;;
37877;SDS011;23715;53.652;8.516;2023-06-22T21:01:45;25.50;;;23.90;;
37877;SDS011;23715;53.652;8.516;2023-06-22T21:06:46;24.03;;;22.43;;
37877;SDS011;23715;53.652;8.516;2023-06-22T21:11:48;24.25;;;22.48;;
37877;SDS011;23715;53.652;8.516;2023-06-22T21:16:51;24.27;;;22.52;;
37877;SDS011;23715;53.652;8.516;2023-06-22T21:21:54;23.77;;;22.27;;
37877;SDS011;23715;53.652;8.516;2023-06-22T21:26:53;23.85;;;21.97;;
37877;SDS011;23715;53.652;8.516;2023-06-22T21:31:56;22.93;;;21.50;;
37877;SDS011;23715;53.652;8.516;2023-06-22T21:37:04;29.95;;;27.70;;
37877;SDS011;23715;53.652;8.516;2023-06-22T21:47:04;28.65;;;26.85;;
37877;SDS011;23715;53.652;8.516;2023-06-22T21:52:10;29.48;;;27.37;;
37877;SDS011;23715;53.652;8.516;2023-06-22T21:57:11;31.60;;;29.60;;
37877;SDS011;23715;53.652;8.516;2023-06-22T22:02:13;33.40;;;30.72;;
37877;SDS011;23715;53.652;8.516;2023-06-22T22:07:13;31.87;;;29.87;;
37877;SDS011;23715;53.652;8.516;2023-06-22T22:12:15;33.00;;;30.80;;
37877;SDS011;23715;53.652;8.516;2023-06-22T22:17:21;28.85;;;27.05;;
37877;SDS011;23715;53.652;8.516;2023-06-22T22:22:18;24.55;;;22.67;;
37877;SDS011;23715;53.652;8.516;2023-06-22T22:27:18;25.90;;;23.77;;
37877;SDS011;23715;53.652;8.516;2023-06-22T22:32:20;25.68;;;23.87;;
37877;SDS011;23715;53.652;8.516;2023-06-22T22:37:26;25.08;;;23.47;;
37877;SDS011;23715;53.652;8.516;2023-06-22T22:42:22;27.48;;;25.17;;
37877;SDS011;23715;53.652;8.516;2023-06-22T22:52:24;25.57;;;23.98;;
37877;SDS011;23715;53.652;8.516;2023-06-22T22:57:33;25.52;;;23.73;;
37877;SDS011;23715;53.652;8.516;2023-06-22T23:02:33;24.67;;;23.00;;
37877;SDS011;23715;53.652;8.516;2023-06-22T23:07:34;23.75;;;22.15;;
37877;SDS011;23715;53.652;8.516;2023-06-22T23:12:36;26.50;;;24.80;;
37877;SDS011;23715;53.652;8.516;2023-06-22T23:17:38;25.52;;;23.83;;
37877;SDS011;23715;53.652;8.516;2023-06-22T23:22:38;26.23;;;24.23;;
37877;SDS011;23715;53.652;8.516;2023-06-22T23:27:40;26.90;;;25.00;;
37877;SDS011;23715;53.652;8.516;2023-06-22T23:32:40;27.50;;;25.57;;
37877;SDS011;23715;53.652;8.516;2023-06-22T23:37:41;27.13;;;25.27;;
37877;SDS011;23715;53.652;8.516;2023-06-22T23:42:46;28.80;;;26.48;;
37877;SDS011;23715;53.652;8.516;2023-06-22T23:47:49;28.65;;;26.57;;
37877;SDS011;23715;53.652;8.516;2023-06-22T23:57:49;32.08;;;30.02;;
